Inwood, Indiana
Current Conditions -  °F | °C
As of 7:35 PM on Friday 24 Oct 2014 (Local Time) from KOXI Reporting Station
Clear Clear  
Wind Chill: 13°   Ceiling: Unl
Heat Index: 13°   Visibility: 10mi
Dew Point:   Wind: 3mph
Humidity: 70%   Direction: 200°SSW
Pressure: 29.97"   Gusts: NA
Location:  41.3572°N, 86.3281°W
Report Text: KOXI 242335Z AUTO 20003KT 10SM CLR 13/08 A2997 RMK AO1 T01320079
Loading
Personal Weather Stations






























Interactive Weather Map
Tropical Storm Tracking
New forecast layout! Learn more

10-Day Weather Forecast

Advertisements
Track Severe Weather on mobile